createdAt,value
2022-10-17T00:00:24.786Z,13.81
2022-10-17T00:02:58.634Z,13.93
2022-10-17T00:05:27.492Z,13.96
2022-10-17T00:07:57.167Z,13.93
2022-10-17T00:10:25.997Z,13.89
2022-10-17T00:12:55.699Z,13.80
2022-10-17T00:15:26.632Z,13.85
2022-10-17T00:17:56.297Z,13.82
2022-10-17T00:20:26.915Z,13.89
2022-10-17T00:22:57.559Z,13.91
2022-10-17T00:25:32.131Z,13.91
2022-10-17T00:28:08.971Z,13.92
2022-10-17T00:30:39.073Z,13.87
2022-10-17T00:33:10.668Z,13.87
2022-10-17T00:35:44.032Z,13.84
2022-10-17T00:38:25.110Z,13.86
2022-10-17T00:41:00.934Z,13.85
2022-10-17T00:44:06.790Z,13.83
2022-10-17T00:46:40.782Z,13.87
2022-10-17T00:49:13.071Z,13.95
2022-10-17T00:51:46.681Z,14.02
2022-10-17T00:54:19.566Z,14.07
2022-10-17T01:02:33.590Z,14.17
2022-10-17T01:05:10.079Z,14.22
2022-10-17T01:07:46.516Z,14.27
2022-10-17T01:16:33.561Z,14.41
2022-10-17T01:19:41.250Z,14.45
2022-10-17T01:22:20.970Z,14.49
2022-10-17T01:25:02.390Z,14.52
2022-10-17T01:28:23.242Z,14.55
2022-10-17T01:31:14.140Z,14.56
2022-10-17T01:34:05.010Z,14.60
2022-10-17T01:36:42.392Z,14.62
2022-10-17T01:39:22.148Z,14.68
2022-10-17T01:42:06.786Z,14.70
2022-10-17T01:44:43.910Z,14.71
2022-10-17T01:47:20.553Z,14.71
2022-10-17T01:49:55.132Z,14.72
2022-10-17T01:52:29.590Z,14.66
2022-10-17T01:55:05.942Z,14.76
2022-10-17T01:57:54.369Z,14.77
2022-10-17T02:00:38.165Z,14.78
2022-10-17T02:03:19.349Z,14.68
2022-10-17T02:08:47.587Z,14.58
2022-10-17T02:11:23.734Z,14.55
2022-10-17T02:14:18.358Z,14.48
2022-10-17T02:17:01.082Z,14.42
2022-10-17T02:20:22.630Z,14.35
2022-10-17T02:23:00.332Z,14.32
2022-10-17T02:26:05.619Z,14.26
2022-10-17T02:28:51.724Z,14.16
2022-10-17T02:31:28.416Z,14.23
2022-10-17T02:34:03.832Z,14.19
2022-10-17T02:36:52.940Z,14.20
2022-10-17T02:39:40.485Z,14.16
2022-10-17T02:42:14.566Z,14.16
2022-10-17T02:44:48.231Z,14.15
2022-10-17T02:48:01.686Z,14.09
2022-10-17T02:50:43.089Z,14.09
2022-10-17T02:53:42.341Z,14.08
2022-10-17T02:56:19.634Z,14.08
2022-10-17T02:59:00.981Z,14.06
2022-10-17T03:01:33.843Z,14.06
2022-10-17T03:07:07.543Z,13.98
2022-10-17T03:09:37.611Z,13.96
2022-10-17T03:12:06.887Z,13.93
2022-10-17T03:14:49.242Z,13.91
2022-10-17T03:17:21.924Z,13.86
2022-10-17T03:19:50.136Z,13.89
2022-10-17T03:22:21.622Z,13.87
2022-10-17T03:24:58.748Z,13.84
2022-10-17T03:27:35.440Z,13.84
2022-10-17T03:30:11.069Z,13.79
2022-10-17T03:32:44.002Z,13.83
2022-10-17T03:35:19.553Z,13.82
2022-10-17T03:37:52.693Z,13.81
2022-10-17T03:40:46.374Z,13.84
2022-10-17T03:46:02.587Z,13.89
2022-10-17T03:48:34.121Z,13.91
2022-10-17T03:51:09.532Z,13.90
2022-10-17T03:53:52.048Z,13.93
2022-10-17T03:56:26.017Z,13.96
2022-10-17T03:58:56.405Z,13.94
2022-10-17T04:01:31.129Z,14.00
2022-10-17T04:04:02.365Z,14.00
2022-10-17T04:06:44.322Z,14.03
2022-10-17T04:09:15.428Z,14.03
2022-10-17T04:11:45.162Z,14.06
2022-10-17T04:14:22.043Z,14.05
2022-10-17T04:16:58.375Z,14.09
2022-10-17T04:19:29.258Z,14.11
2022-10-17T04:21:58.185Z,14.14
2022-10-17T04:29:59.195Z,14.26
2022-10-17T04:32:33.903Z,14.24
2022-10-17T04:35:03.666Z,14.30
2022-10-17T04:37:34.234Z,14.29
2022-10-17T04:40:03.910Z,14.37
2022-10-17T04:42:50.728Z,14.38
2022-10-17T04:45:21.920Z,14.43
2022-10-17T04:47:54.212Z,14.47
2022-10-17T04:50:22.905Z,14.51
2022-10-17T04:55:52.569Z,14.59
2022-10-17T04:58:30.978Z,14.65
2022-10-17T05:01:01.123Z,14.73
2022-10-17T05:03:31.895Z,14.76
2022-10-17T05:06:00.101Z,14.77
2022-10-17T05:08:37.142Z,14.85
2022-10-17T05:11:09.660Z,14.87
2022-10-17T05:13:58.336Z,14.89
2022-10-17T05:16:29.935Z,14.93
2022-10-17T05:19:01.916Z,14.93
2022-10-17T05:24:09.096Z,14.91
2022-10-17T05:26:41.283Z,14.94
2022-10-17T05:29:14.112Z,14.95
2022-10-17T05:31:49.058Z,14.98
2022-10-17T05:34:18.477Z,14.98
2022-10-17T05:36:48.130Z,15.00
2022-10-17T05:39:20.676Z,15.00
2022-10-17T05:41:55.264Z,14.98
2022-10-17T05:47:34.837Z,15.06
2022-10-17T05:50:03.373Z,15.10
2022-10-17T05:52:47.161Z,15.08
2022-10-17T05:55:16.449Z,15.13
2022-10-17T05:58:00.800Z,15.12
2022-10-17T06:00:32.086Z,15.15
2022-10-17T06:03:02.938Z,15.10
2022-10-17T06:05:32.678Z,15.15
2022-10-17T06:08:08.374Z,15.18
2022-10-17T06:10:40.304Z,15.21
2022-10-17T06:13:10.047Z,15.23
2022-10-17T06:16:07.072Z,15.25
2022-10-17T06:21:28.772Z,15.35
2022-10-17T06:23:59.809Z,15.38
2022-10-17T06:26:34.672Z,15.42
2022-10-17T06:29:04.215Z,15.47
2022-10-17T06:31:38.290Z,15.52
2022-10-17T06:34:15.163Z,15.56
2022-10-17T06:36:51.556Z,15.57
2022-10-17T06:39:36.642Z,15.64
2022-10-17T06:42:07.174Z,15.67
2022-10-17T06:44:37.321Z,15.69
2022-10-17T06:47:08.331Z,15.70
2022-10-17T06:49:51.719Z,15.78
2022-10-17T06:52:35.155Z,15.84
2022-10-17T06:55:10.722Z,15.89
2022-10-17T06:57:40.640Z,15.94
2022-10-17T07:00:12.428Z,15.99
2022-10-17T07:02:49.444Z,16.08
2022-10-17T07:08:08.073Z,16.19
2022-10-17T07:10:38.972Z,16.23
2022-10-17T07:13:13.365Z,16.31
2022-10-17T07:15:42.578Z,16.40
2022-10-17T07:18:33.848Z,16.47
2022-10-17T07:21:11.916Z,16.55
2022-10-17T07:23:48.764Z,16.55
2022-10-17T07:26:19.558Z,16.73
2022-10-17T07:28:54.408Z,16.84
2022-10-17T07:31:26.307Z,16.90
2022-10-17T07:34:01.754Z,17.02
2022-10-17T07:36:36.463Z,17.10
2022-10-17T07:39:23.702Z,17.19
2022-10-17T07:42:00.840Z,17.27
2022-10-17T07:44:31.668Z,17.34
2022-10-17T07:47:02.033Z,17.43
2022-10-17T07:49:33.991Z,17.48
2022-10-17T07:52:17.168Z,17.57
2022-10-17T07:54:54.570Z,17.63
2022-10-17T07:57:23.692Z,17.75
2022-10-17T08:00:02.177Z,17.80
2022-10-17T08:02:33.490Z,17.87
2022-10-17T08:05:10.960Z,17.91
2022-10-17T08:07:42.656Z,17.94
2022-10-17T08:10:14.526Z,17.97
2022-10-17T08:12:44.594Z,17.99
2022-10-17T08:15:34.685Z,18.10
2022-10-17T08:18:06.491Z,18.22
2022-10-17T08:20:56.773Z,18.34
2022-10-17T08:26:20.265Z,18.63
2022-10-17T08:28:49.497Z,18.74
2022-10-17T08:31:35.497Z,18.84
2022-10-17T08:34:12.694Z,18.90
2022-10-17T08:36:56.904Z,18.96
2022-10-17T08:39:25.342Z,19.02
2022-10-17T08:42:08.026Z,19.09
2022-10-17T08:44:58.938Z,19.16
2022-10-17T08:53:26.746Z,19.16
2022-10-17T08:55:59.686Z,19.23
2022-10-17T08:58:39.333Z,19.25
2022-10-17T09:01:27.308Z,19.24
2022-10-17T09:04:50.100Z,19.27
2022-10-17T09:07:31.321Z,19.27
2022-10-17T09:10:11.909Z,19.38
2022-10-17T09:13:07.598Z,19.43
2022-10-17T09:15:52.629Z,19.50
2022-10-17T09:18:31.514Z,19.56
2022-10-17T09:21:21.773Z,19.56
2022-10-17T09:24:15.875Z,19.58
2022-10-17T09:26:47.585Z,19.50
2022-10-17T09:29:44.057Z,19.54
2022-10-17T09:32:42.975Z,19.48
2022-10-17T09:35:18.079Z,19.37
2022-10-17T09:37:52.276Z,19.44
2022-10-17T09:43:28.446Z,19.42
2022-10-17T09:46:26.861Z,19.39
2022-10-17T09:49:03.429Z,19.38
2022-10-17T09:51:34.717Z,19.37
2022-10-17T09:54:13.525Z,19.24
2022-10-17T09:57:07.174Z,19.12
2022-10-17T10:05:34.935Z,19.13
2022-10-17T10:08:07.226Z,19.12
2022-10-17T10:10:38.900Z,19.12
2022-10-17T10:13:21.818Z,19.03
2022-10-17T10:15:54.391Z,18.82
2022-10-17T10:18:56.861Z,18.66
2022-10-17T10:21:31.429Z,18.47
2022-10-17T10:24:25.882Z,18.37
2022-10-17T10:27:09.436Z,18.32
2022-10-17T10:29:44.890Z,18.26
2022-10-17T10:32:24.551Z,18.25
2022-10-17T10:35:08.528Z,18.17
2022-10-17T10:37:43.819Z,18.19
2022-10-17T10:40:19.680Z,18.16
2022-10-17T10:46:00.426Z,18.18
2022-10-17T10:48:36.952Z,18.19
2022-10-17T10:51:15.550Z,18.19
2022-10-17T10:54:01.456Z,18.17
2022-10-17T10:56:40.592Z,18.16
2022-10-17T10:59:19.442Z,18.16
2022-10-17T11:01:58.442Z,18.16
2022-10-17T11:04:47.439Z,18.17
2022-10-17T11:07:22.762Z,18.18
2022-10-17T11:10:18.865Z,18.23
2022-10-17T11:12:56.320Z,18.26
2022-10-17T11:15:35.533Z,18.28
2022-10-17T11:21:22.044Z,18.38
2022-10-17T11:24:11.407Z,18.44
2022-10-17T11:27:07.382Z,18.51
2022-10-17T11:29:49.908Z,18.58
2022-10-17T11:32:27.998Z,18.58
2022-10-17T11:35:09.300Z,18.55
2022-10-17T11:37:48.366Z,18.51
2022-10-17T11:40:37.921Z,18.46
2022-10-17T11:46:14.589Z,18.38
2022-10-17T11:49:19.792Z,18.36
2022-10-17T11:52:00.937Z,18.29
2022-10-17T11:54:54.155Z,18.28
2022-10-17T11:57:51.975Z,18.27
2022-10-17T12:00:32.668Z,18.29
2022-10-17T12:03:57.741Z,18.30
2022-10-17T12:07:07.609Z,18.33
2022-10-17T12:09:54.792Z,18.37
2022-10-17T12:12:34.559Z,18.41
2022-10-17T12:15:34.601Z,18.44
2022-10-17T12:18:06.404Z,18.51
2022-10-17T12:20:37.658Z,18.58
2022-10-17T12:23:28.110Z,18.70
2022-10-17T12:26:30.375Z,18.75
2022-10-17T12:29:00.180Z,18.76
2022-10-17T12:31:34.103Z,18.79
2022-10-17T12:34:20.728Z,18.82
2022-10-17T12:36:58.037Z,18.89
2022-10-17T12:39:54.519Z,18.84
2022-10-17T12:43:25.489Z,18.78
2022-10-17T12:46:12.439Z,18.82
2022-10-17T12:49:19.475Z,18.82
2022-10-17T12:55:17.255Z,18.81
2022-10-17T12:58:27.575Z,18.72
2022-10-17T13:04:04.681Z,18.60
2022-10-17T13:06:38.480Z,18.61
2022-10-17T13:09:30.647Z,18.60
2022-10-17T13:12:02.989Z,18.60
2022-10-17T13:14:41.890Z,18.59
2022-10-17T13:17:30.808Z,18.51
2022-10-17T13:20:00.961Z,18.52
2022-10-17T13:22:41.555Z,18.40
2022-10-17T13:25:19.011Z,18.23
2022-10-17T13:27:53.768Z,18.17
2022-10-17T13:30:49.793Z,18.05
2022-10-17T13:34:00.203Z,17.94
2022-10-17T13:36:31.096Z,17.80
2022-10-17T13:39:17.231Z,17.77
2022-10-17T13:41:54.484Z,17.79
2022-10-17T13:44:27.908Z,17.76
2022-10-17T13:46:58.693Z,17.79
2022-10-17T13:49:41.753Z,17.70
2022-10-17T13:52:29.766Z,17.73
2022-10-17T13:55:27.347Z,17.69
2022-10-17T13:58:02.990Z,17.68
2022-10-17T14:00:35.157Z,17.60
2022-10-17T14:03:11.007Z,17.64
2022-10-17T14:06:21.652Z,17.67
2022-10-17T14:08:59.888Z,17.67
2022-10-17T14:11:41.236Z,17.61
2022-10-17T14:14:20.549Z,17.63
2022-10-17T14:16:49.575Z,17.64
2022-10-17T14:19:28.121Z,17.63
2022-10-17T14:22:19.284Z,17.61
2022-10-17T14:24:52.142Z,17.59
2022-10-17T14:28:03.087Z,17.65
2022-10-17T14:30:56.437Z,17.63
2022-10-17T14:33:34.560Z,17.62
2022-10-17T14:36:07.300Z,17.58
2022-10-17T14:38:40.593Z,17.58
2022-10-17T14:44:22.265Z,17.44
2022-10-17T14:46:58.059Z,17.42
2022-10-17T14:50:01.073Z,17.41
2022-10-17T14:52:52.179Z,17.38
2022-10-17T14:55:40.355Z,17.32
2022-10-17T14:58:31.413Z,17.23
2022-10-17T15:01:20.105Z,17.24
2022-10-17T15:03:50.257Z,17.22
2022-10-17T15:06:50.310Z,17.15
2022-10-17T15:09:20.035Z,17.22
2022-10-17T15:11:53.212Z,17.16
2022-10-17T15:14:22.946Z,17.07
2022-10-17T15:16:51.244Z,17.13
2022-10-17T15:19:22.502Z,17.13
2022-10-17T15:21:52.309Z,17.08
2022-10-17T15:24:22.052Z,17.12
2022-10-17T15:27:00.387Z,17.14
2022-10-17T15:29:34.951Z,17.18
2022-10-17T15:32:04.343Z,17.26
2022-10-17T15:34:38.800Z,17.34
2022-10-17T15:37:21.358Z,17.39
2022-10-17T15:39:59.269Z,17.31
2022-10-17T15:42:32.507Z,17.19
2022-10-17T15:45:16.786Z,17.25
2022-10-17T15:47:53.100Z,17.14
2022-10-17T15:50:30.354Z,17.14
2022-10-17T15:53:02.892Z,17.07
2022-10-17T15:55:34.258Z,17.07
2022-10-17T16:01:20.497Z,16.82
2022-10-17T16:04:05.770Z,16.83
2022-10-17T16:06:39.794Z,16.73
2022-10-17T16:09:08.042Z,16.70
2022-10-17T16:11:40.777Z,16.65
2022-10-17T16:17:12.537Z,16.64
2022-10-17T16:19:48.476Z,16.54
2022-10-17T16:22:44.108Z,16.60
2022-10-17T16:25:36.989Z,16.56
2022-10-17T16:28:06.281Z,16.45
2022-10-17T16:30:52.039Z,16.34
2022-10-17T16:33:21.633Z,16.33
2022-10-17T16:35:56.062Z,16.27
2022-10-17T16:38:25.813Z,16.22
2022-10-17T16:40:54.641Z,16.11
2022-10-17T16:43:24.612Z,16.12
2022-10-17T16:46:09.460Z,16.10
2022-10-17T16:48:46.908Z,16.04
2022-10-17T16:51:20.495Z,16.07
2022-10-17T16:53:53.271Z,16.05
2022-10-17T16:56:33.507Z,15.97
2022-10-17T16:59:04.193Z,16.00
2022-10-17T17:01:40.741Z,15.95
2022-10-17T17:04:15.353Z,15.95
2022-10-17T17:06:50.114Z,15.96
2022-10-17T17:09:19.572Z,15.93
2022-10-17T17:11:48.418Z,15.92
2022-10-17T17:14:35.383Z,15.90
2022-10-17T17:17:24.398Z,15.90
2022-10-17T17:20:21.018Z,15.86
2022-10-17T17:22:53.561Z,15.84
2022-10-17T17:25:24.773Z,15.84
2022-10-17T17:28:00.416Z,15.76
2022-10-17T17:30:30.758Z,15.83
2022-10-17T17:33:03.079Z,15.78
2022-10-17T17:35:54.583Z,15.78
2022-10-17T17:38:22.940Z,15.75
2022-10-17T17:40:54.379Z,15.73
2022-10-17T17:43:38.417Z,15.81
2022-10-17T17:46:09.544Z,15.81
2022-10-17T17:48:56.292Z,15.71
2022-10-17T17:51:29.643Z,15.76
2022-10-17T17:53:59.036Z,15.79
2022-10-17T17:56:35.737Z,15.80
2022-10-17T17:59:04.176Z,15.81
2022-10-17T18:01:39.106Z,15.78
2022-10-17T18:04:11.010Z,15.82
2022-10-17T18:06:43.754Z,15.83
2022-10-17T18:09:17.948Z,15.80
2022-10-17T18:11:48.704Z,15.80
2022-10-17T18:14:19.961Z,15.78
2022-10-17T18:16:48.432Z,15.82
2022-10-17T18:24:57.493Z,15.83
2022-10-17T18:27:39.164Z,15.86
2022-10-17T18:30:11.873Z,15.87
2022-10-17T18:32:40.681Z,15.91
2022-10-17T18:35:45.229Z,15.89
2022-10-17T18:38:19.916Z,15.87
2022-10-17T18:40:51.693Z,15.88
2022-10-17T18:43:21.410Z,15.89
2022-10-17T18:46:04.692Z,15.92
2022-10-17T18:48:36.015Z,15.86
2022-10-17T18:51:07.179Z,15.83
2022-10-17T18:53:40.727Z,15.82
2022-10-17T18:56:24.408Z,15.80
2022-10-17T18:58:59.755Z,15.69
2022-10-17T19:01:32.343Z,15.74
2022-10-17T19:04:02.671Z,15.77
2022-10-17T19:06:40.831Z,15.70
2022-10-17T19:09:27.414Z,15.75
2022-10-17T19:11:56.565Z,15.68
2022-10-17T19:14:32.481Z,15.71
2022-10-17T19:17:04.119Z,15.67
2022-10-17T19:19:34.612Z,15.68
2022-10-17T19:22:05.916Z,15.60
2022-10-17T19:24:55.361Z,15.57
2022-10-17T19:27:23.698Z,15.62
2022-10-17T19:30:11.092Z,15.63
2022-10-17T19:32:42.084Z,15.62
2022-10-17T19:35:13.401Z,15.55
2022-10-17T19:38:06.461Z,15.57
2022-10-17T19:40:57.153Z,15.56
2022-10-17T19:43:31.823Z,15.52
2022-10-17T19:46:05.002Z,15.46
2022-10-17T19:48:39.488Z,15.45
2022-10-17T19:51:10.514Z,15.50
2022-10-17T19:53:47.888Z,15.46
2022-10-17T19:56:18.740Z,15.46
2022-10-17T19:58:49.342Z,15.42
2022-10-17T20:01:23.553Z,15.37
2022-10-17T20:03:53.148Z,15.37
2022-10-17T20:06:28.569Z,15.38
2022-10-17T20:09:02.003Z,15.29
2022-10-17T20:11:33.252Z,15.27
2022-10-17T20:14:02.906Z,15.25
2022-10-17T20:16:43.129Z,15.32
2022-10-17T20:19:15.007Z,15.28
2022-10-17T20:21:45.054Z,15.29
2022-10-17T20:27:00.488Z,15.29
2022-10-17T20:29:30.859Z,15.30
2022-10-17T20:32:16.862Z,15.36
2022-10-17T20:34:47.063Z,15.38
2022-10-17T20:37:19.481Z,15.35
2022-10-17T20:39:59.925Z,15.37
2022-10-17T20:42:39.101Z,15.34
2022-10-17T20:45:37.588Z,15.35
2022-10-17T20:48:30.927Z,15.40
2022-10-17T20:51:00.400Z,15.41
2022-10-17T20:53:38.557Z,15.41
2022-10-17T20:56:20.142Z,15.41
2022-10-17T20:59:09.112Z,15.30
2022-10-17T21:01:38.984Z,15.38
2022-10-17T21:04:40.361Z,15.37
2022-10-17T21:06:57.881Z,15.36
2022-10-17T21:09:32.635Z,15.36
2022-10-17T21:12:05.646Z,15.28
2022-10-17T21:14:36.404Z,15.39
2022-10-17T21:17:05.624Z,15.41
2022-10-17T21:19:40.869Z,15.38
2022-10-17T21:22:29.580Z,15.48
2022-10-17T21:25:00.862Z,15.56
2022-10-17T21:27:36.470Z,15.56
2022-10-17T21:30:05.367Z,15.59
2022-10-17T21:32:51.115Z,15.54
2022-10-17T21:35:21.405Z,15.62
2022-10-17T21:40:34.446Z,15.63
2022-10-17T21:43:05.156Z,15.62
2022-10-17T21:45:37.928Z,15.59
2022-10-17T21:48:13.986Z,15.54
2022-10-17T21:50:48.510Z,15.42
2022-10-17T21:53:20.243Z,15.40
2022-10-17T21:55:48.591Z,15.31
2022-10-17T21:58:47.964Z,15.25
2022-10-17T22:01:21.521Z,15.21
2022-10-17T22:03:54.457Z,15.20
2022-10-17T22:06:40.149Z,15.22
2022-10-17T22:09:13.915Z,15.30
2022-10-17T22:11:57.333Z,15.32
2022-10-17T22:14:28.519Z,15.37
2022-10-17T22:16:57.118Z,15.38
2022-10-17T22:19:28.962Z,15.40
2022-10-17T22:22:07.626Z,15.42
2022-10-17T22:24:39.049Z,15.41
2022-10-17T22:27:13.591Z,15.47
2022-10-17T22:29:59.982Z,15.43
2022-10-17T22:32:29.505Z,15.45
2022-10-17T22:35:03.493Z,15.40
2022-10-17T22:37:40.560Z,15.45
2022-10-17T22:40:09.710Z,15.43
2022-10-17T22:42:40.685Z,15.37
2022-10-17T22:45:11.771Z,15.36
2022-10-17T22:47:45.903Z,15.31
2022-10-17T22:50:19.916Z,15.30
2022-10-17T22:52:54.051Z,15.26
2022-10-17T22:55:28.109Z,15.25
2022-10-17T22:58:02.700Z,15.26
2022-10-17T23:00:46.279Z,15.25
2022-10-17T23:03:22.462Z,15.25
2022-10-17T23:05:51.970Z,15.22
2022-10-17T23:08:36.597Z,15.25
2022-10-17T23:11:07.989Z,15.21
2022-10-17T23:13:37.278Z,15.16
2022-10-17T23:16:12.762Z,15.05
2022-10-17T23:18:41.382Z,15.02
2022-10-17T23:21:14.881Z,15.04
2022-10-17T23:23:43.964Z,15.01
2022-10-17T23:26:16.606Z,14.98
2022-10-17T23:28:57.439Z,14.94
2022-10-17T23:31:34.271Z,14.90
2022-10-17T23:34:05.297Z,14.79
2022-10-17T23:36:35.529Z,14.90
2022-10-17T23:39:07.389Z,14.87
2022-10-17T23:41:35.705Z,14.84
2022-10-17T23:44:04.612Z,14.84
2022-10-17T23:46:37.321Z,14.80
2022-10-17T23:49:12.174Z,14.79
2022-10-17T23:51:41.541Z,14.84
2022-10-17T23:54:11.059Z,14.84
2022-10-17T23:56:39.869Z,14.82
2022-10-17T23:59:11.434Z,14.80
